createdAt,value
2023-04-09T00:01:14.364Z,22.57
2023-04-09T00:03:46.087Z,22.37
2023-04-09T00:06:16.729Z,22.50
2023-04-09T00:08:49.397Z,24.00
2023-04-09T00:11:20.938Z,22.42
2023-04-09T00:13:51.493Z,24.57
2023-04-09T00:16:22.346Z,24.82
2023-04-09T00:18:53.110Z,24.97
2023-04-09T00:21:24.360Z,23.67
2023-04-09T00:23:54.816Z,25.13
2023-04-09T00:26:25.921Z,24.77
2023-04-09T00:28:56.503Z,25.32
2023-04-09T00:31:27.087Z,25.93
2023-04-09T00:33:57.704Z,25.97
2023-04-09T00:36:28.384Z,25.67
2023-04-09T00:39:00.860Z,25.60
2023-04-09T00:41:32.956Z,24.52
2023-04-09T00:44:03.993Z,24.92
2023-04-09T00:46:34.582Z,25.70
2023-04-09T00:49:05.348Z,25.20
2023-04-09T00:51:38.828Z,25.27
2023-04-09T00:54:11.694Z,25.27
2023-04-09T00:56:43.244Z,25.20
2023-04-09T00:59:16.021Z,25.17
2023-04-09T01:01:46.566Z,24.50
2023-04-09T01:04:17.244Z,24.92
2023-04-09T01:06:54.062Z,25.10
2023-04-09T01:09:37.002Z,25.77
2023-04-09T01:12:21.526Z,26.02
2023-04-09T01:15:12.419Z,25.50
2023-04-09T01:17:48.868Z,26.23
2023-04-09T01:20:25.364Z,25.73
2023-04-09T01:23:04.131Z,25.83
2023-04-09T01:25:46.358Z,26.57
2023-04-09T01:28:28.487Z,26.23
2023-04-09T01:31:02.554Z,27.00
2023-04-09T01:33:33.434Z,27.48
2023-04-09T01:36:05.941Z,26.23
2023-04-09T01:38:43.882Z,26.60
2023-04-09T01:41:17.813Z,25.33
2023-04-09T01:43:50.131Z,25.30
2023-04-09T01:46:24.117Z,25.88
2023-04-09T01:48:56.227Z,25.17
2023-04-09T01:51:27.895Z,25.50
2023-04-09T01:53:59.209Z,25.93
2023-04-09T01:56:42.386Z,25.65
2023-04-09T01:59:13.669Z,25.88
2023-04-09T02:01:50.225Z,25.80
2023-04-09T02:04:27.003Z,26.85
2023-04-09T02:07:06.535Z,26.83
2023-04-09T02:09:40.734Z,26.30
2023-04-09T02:12:16.346Z,25.90
2023-04-09T02:14:50.264Z,27.53
2023-04-09T02:17:23.618Z,25.87
2023-04-09T02:19:54.344Z,27.37
2023-04-09T02:22:24.863Z,25.40
2023-04-09T02:24:55.661Z,26.42
2023-04-09T02:27:26.331Z,26.33
2023-04-09T02:29:56.848Z,26.17
2023-04-09T02:32:27.552Z,27.30
2023-04-09T02:34:58.075Z,26.17
2023-04-09T02:37:28.558Z,25.73
2023-04-09T02:39:59.122Z,26.40
2023-04-09T02:42:29.567Z,25.90
2023-04-09T02:45:00.070Z,27.10
2023-04-09T02:47:30.807Z,25.60
2023-04-09T02:50:01.445Z,25.80
2023-04-09T02:52:31.964Z,27.43
2023-04-09T02:55:02.663Z,26.60
2023-04-09T02:57:33.793Z,26.13
2023-04-09T03:00:06.229Z,26.10
2023-04-09T03:02:36.802Z,26.13
2023-04-09T03:05:08.422Z,27.20
2023-04-09T03:07:38.931Z,26.07
2023-04-09T03:10:10.359Z,26.57
2023-04-09T03:12:44.204Z,26.37
2023-04-09T03:15:15.273Z,26.37
2023-04-09T03:17:45.985Z,26.87
2023-04-09T03:20:16.708Z,25.83
2023-04-09T03:22:49.007Z,25.33
2023-04-09T03:25:21.399Z,25.10
2023-04-09T03:27:51.773Z,25.87
2023-04-09T03:30:22.327Z,26.33
2023-04-09T03:32:52.876Z,25.70
2023-04-09T03:35:23.619Z,27.13
2023-04-09T03:37:54.108Z,26.73
2023-04-09T03:40:24.611Z,27.97
2023-04-09T03:42:55.242Z,27.93
2023-04-09T03:45:28.556Z,25.77
2023-04-09T03:47:59.261Z,25.13
2023-04-09T03:50:29.733Z,26.37
2023-04-09T03:53:00.204Z,26.07
2023-04-09T03:55:30.841Z,25.50
2023-04-09T03:58:01.376Z,27.20
2023-04-09T04:00:32.014Z,27.80
2023-04-09T04:03:02.689Z,26.90
2023-04-09T04:05:33.562Z,26.17
2023-04-09T04:08:04.004Z,27.80
2023-04-09T04:10:36.084Z,26.87
2023-04-09T04:13:12.127Z,27.60
2023-04-09T04:15:43.313Z,28.00
2023-04-09T04:18:15.484Z,28.03
2023-04-09T04:20:46.780Z,27.87
2023-04-09T04:23:19.490Z,30.13
2023-04-09T04:25:50.755Z,30.50
2023-04-09T04:28:21.255Z,31.70
2023-04-09T04:30:53.093Z,29.90
2023-04-09T04:33:23.794Z,30.90
2023-04-09T04:35:54.453Z,31.20
2023-04-09T04:38:25.603Z,30.03
2023-04-09T04:40:57.650Z,30.13
2023-04-09T04:43:29.285Z,27.30
2023-04-09T04:45:59.873Z,27.93
2023-04-09T04:48:31.992Z,27.40
2023-04-09T04:51:03.619Z,26.27
2023-04-09T04:53:34.457Z,28.23
2023-04-09T04:56:05.325Z,26.80
2023-04-09T04:58:35.778Z,27.00
2023-04-09T05:01:06.511Z,27.90
2023-04-09T05:03:37.282Z,26.52
2023-04-09T05:06:08.120Z,26.63
2023-04-09T05:08:38.638Z,26.70
2023-04-09T05:11:15.114Z,24.50
2023-04-09T05:13:46.566Z,25.77
2023-04-09T05:16:23.177Z,26.30
2023-04-09T05:18:55.362Z,26.77
2023-04-09T05:21:29.032Z,25.40
2023-04-09T05:23:59.943Z,25.87
2023-04-09T05:26:30.768Z,26.27
2023-04-09T05:29:01.344Z,26.20
2023-04-09T05:31:31.972Z,25.90
2023-04-09T05:34:02.613Z,25.07
2023-04-09T05:36:33.657Z,25.63
2023-04-09T05:39:04.346Z,26.73
2023-04-09T05:41:36.695Z,25.80
2023-04-09T05:44:07.276Z,26.80
2023-04-09T05:46:38.382Z,27.13
2023-04-09T05:49:08.885Z,26.23
2023-04-09T05:51:39.488Z,26.00
2023-04-09T05:54:10.702Z,26.40
2023-04-09T05:56:41.378Z,27.43
2023-04-09T05:59:12.047Z,27.65
2023-04-09T06:01:42.728Z,27.80
2023-04-09T06:04:14.100Z,28.73
2023-04-09T06:06:45.806Z,30.25
2023-04-09T06:09:16.340Z,28.47
2023-04-09T06:11:46.884Z,26.48
2023-04-09T06:14:21.419Z,25.43
2023-04-09T06:16:52.585Z,25.02
2023-04-09T06:19:23.842Z,23.77
2023-04-09T06:21:54.462Z,24.00
2023-04-09T06:24:26.803Z,23.53
2023-04-09T06:26:57.320Z,25.17
2023-04-09T06:29:28.032Z,24.47
2023-04-09T06:31:58.564Z,24.37
2023-04-09T06:37:20.440Z,24.30
2023-04-09T06:40:00.418Z,24.67
2023-04-09T06:42:24.468Z,23.77
2023-04-09T06:44:55.198Z,23.30
2023-04-09T06:47:27.422Z,23.80
2023-04-09T06:49:57.959Z,24.12
2023-04-09T06:52:28.487Z,23.07
2023-04-09T06:54:59.457Z,24.77
2023-04-09T06:57:29.920Z,23.43
2023-04-09T07:00:00.549Z,24.10
2023-04-09T07:02:31.598Z,24.03
2023-04-09T07:05:03.086Z,23.77
2023-04-09T07:07:33.877Z,24.67
2023-04-09T07:10:04.481Z,25.12
2023-04-09T07:12:36.051Z,26.43
2023-04-09T07:15:08.086Z,23.80
2023-04-09T07:17:38.820Z,25.43
2023-04-09T07:20:10.474Z,25.08
2023-04-09T07:22:43.109Z,24.45
2023-04-09T07:25:13.536Z,23.80
2023-04-09T07:27:45.218Z,25.15
2023-04-09T07:30:17.447Z,24.47
2023-04-09T07:32:47.979Z,24.32
2023-04-09T07:35:19.166Z,23.53
2023-04-09T07:37:52.309Z,24.35
2023-04-09T07:40:22.922Z,23.90
2023-04-09T07:42:54.063Z,24.07
2023-04-09T07:45:24.691Z,24.40
2023-04-09T07:47:56.675Z,24.47
2023-04-09T07:50:27.277Z,23.70
2023-04-09T07:52:57.993Z,24.55
2023-04-09T07:55:28.480Z,23.95
2023-04-09T07:57:59.600Z,26.20
2023-04-09T08:00:31.587Z,25.17
2023-04-09T08:03:03.844Z,23.95
2023-04-09T08:05:36.531Z,24.63
2023-04-09T08:08:07.373Z,23.80
2023-04-09T08:10:39.591Z,25.10
2023-04-09T08:13:12.095Z,25.53
2023-04-09T08:15:43.263Z,24.77
2023-04-09T08:18:13.869Z,24.33
2023-04-09T08:20:45.589Z,25.13
2023-04-09T08:23:16.500Z,24.77
2023-04-09T08:25:47.031Z,25.20
2023-04-09T08:28:19.133Z,25.67
2023-04-09T08:30:50.100Z,26.50
2023-04-09T08:33:22.624Z,25.03
2023-04-09T08:35:54.532Z,26.23
2023-04-09T08:38:26.878Z,24.67
2023-04-09T08:40:57.585Z,25.50
2023-04-09T08:43:52.558Z,24.67
2023-04-09T08:46:03.730Z,24.40
2023-04-09T08:48:35.099Z,24.47
2023-04-09T08:51:06.847Z,24.75
2023-04-09T08:53:38.946Z,25.57
2023-04-09T08:56:10.652Z,24.50
2023-04-09T08:58:46.537Z,24.47
2023-04-09T09:01:29.079Z,24.12
2023-04-09T09:04:08.372Z,24.77
2023-04-09T09:06:42.243Z,24.72
2023-04-09T09:09:17.501Z,25.08
2023-04-09T09:11:51.284Z,24.75
2023-04-09T09:14:21.843Z,23.83
2023-04-09T09:17:03.689Z,24.20
2023-04-09T09:19:35.803Z,25.85
2023-04-09T09:22:13.855Z,24.27
2023-04-09T09:24:50.361Z,22.90
2023-04-09T09:27:37.822Z,24.75
2023-04-09T09:30:10.468Z,23.25
2023-04-09T09:32:42.555Z,23.90
2023-04-09T09:35:13.299Z,22.50
2023-04-09T09:37:43.985Z,24.32
2023-04-09T09:40:18.613Z,23.42
2023-04-09T09:43:00.622Z,23.45
2023-04-09T09:45:33.239Z,23.32
2023-04-09T09:48:04.243Z,27.58
2023-04-09T09:50:38.219Z,25.02
2023-04-09T09:53:10.596Z,22.32
2023-04-09T09:55:44.824Z,28.27
2023-04-09T09:58:27.060Z,22.32
2023-04-09T10:00:58.814Z,22.27
2023-04-09T10:03:34.439Z,22.52
2023-04-09T10:06:05.042Z,21.87
2023-04-09T10:08:38.032Z,22.73
2023-04-09T10:11:08.968Z,21.75
2023-04-09T10:13:45.551Z,22.77
2023-04-09T10:16:17.366Z,21.57
2023-04-09T10:18:48.071Z,22.52
2023-04-09T10:21:38.352Z,21.62
2023-04-09T10:24:10.598Z,22.25
2023-04-09T10:26:45.188Z,21.93
2023-04-09T10:29:18.396Z,20.23
2023-04-09T10:31:57.568Z,22.40
2023-04-09T10:34:29.356Z,21.15
2023-04-09T10:37:00.892Z,22.48
2023-04-09T10:39:34.689Z,21.75
2023-04-09T10:42:08.934Z,22.40
2023-04-09T10:44:44.440Z,21.15
2023-04-09T10:47:18.014Z,21.20
2023-04-09T10:49:50.251Z,20.85
2023-04-09T10:52:24.510Z,20.65
2023-04-09T10:54:55.095Z,21.60
2023-04-09T10:57:26.468Z,21.97
2023-04-09T10:59:57.063Z,20.15
2023-04-09T11:02:42.855Z,20.48
2023-04-09T11:05:22.314Z,21.27
2023-04-09T11:08:10.641Z,18.92
2023-04-09T11:10:44.467Z,20.57
2023-04-09T11:13:16.936Z,20.90
2023-04-09T11:15:48.128Z,20.20
2023-04-09T11:18:28.342Z,19.37
2023-04-09T11:21:01.564Z,19.48
2023-04-09T11:23:33.932Z,18.92
2023-04-09T11:26:05.365Z,19.37
2023-04-09T11:28:36.417Z,20.00
2023-04-09T11:31:08.273Z,19.20
2023-04-09T11:33:38.993Z,19.12
2023-04-09T11:36:09.709Z,19.48
2023-04-09T11:38:40.281Z,19.12
2023-04-09T11:41:12.765Z,18.92
2023-04-09T11:43:43.413Z,18.65
2023-04-09T11:46:14.199Z,18.48
2023-04-09T11:48:45.621Z,18.62
2023-04-09T11:51:16.471Z,17.98
2023-04-09T11:53:48.488Z,18.52
2023-04-09T11:56:19.049Z,18.80
2023-04-09T11:58:50.564Z,18.77
2023-04-09T12:01:23.057Z,19.32
2023-04-09T12:04:01.284Z,16.97
2023-04-09T12:06:32.073Z,17.98
2023-04-09T12:09:06.000Z,18.42
2023-04-09T12:11:38.462Z,17.65
2023-04-09T12:14:10.891Z,17.25
2023-04-09T12:16:43.257Z,18.37
2023-04-09T12:19:15.644Z,17.15
2023-04-09T12:21:58.344Z,16.40
2023-04-09T12:24:28.925Z,16.12
2023-04-09T12:26:59.472Z,16.73
2023-04-09T12:29:30.567Z,17.62
2023-04-09T12:32:01.736Z,17.30
2023-04-09T12:34:33.670Z,17.75
2023-04-09T12:37:04.964Z,17.75
2023-04-09T12:39:35.642Z,17.65
2023-04-09T12:42:06.139Z,17.52
2023-04-09T12:44:37.324Z,17.30
2023-04-09T12:47:08.623Z,17.60
2023-04-09T12:49:42.449Z,17.30
2023-04-09T12:52:13.646Z,17.45
2023-04-09T12:54:45.206Z,18.23
2023-04-09T12:57:16.292Z,17.65
2023-04-09T12:59:48.051Z,17.40
2023-04-09T13:02:18.906Z,16.60
2023-04-09T13:04:51.393Z,17.23
2023-04-09T13:07:22.862Z,17.12
2023-04-09T13:09:53.632Z,18.77
2023-04-09T13:12:25.451Z,18.10
2023-04-09T13:14:59.573Z,17.25
2023-04-09T13:17:30.275Z,17.48
2023-04-09T13:20:01.653Z,18.10
2023-04-09T13:22:32.331Z,17.77
2023-04-09T13:25:03.062Z,18.10
2023-04-09T13:27:33.587Z,18.37
2023-04-09T13:30:04.241Z,17.95
2023-04-09T13:32:36.078Z,17.62
2023-04-09T13:35:08.015Z,16.62
2023-04-09T13:37:38.738Z,16.50
2023-04-09T13:40:10.256Z,15.53
2023-04-09T13:42:41.155Z,16.30
2023-04-09T13:45:13.080Z,18.20
2023-04-09T13:47:43.619Z,17.27
2023-04-09T13:50:14.212Z,16.57
2023-04-09T13:52:44.898Z,17.75
2023-04-09T13:55:16.142Z,17.45
2023-04-09T13:57:46.941Z,16.75
2023-04-09T14:00:19.334Z,17.05
2023-04-09T14:02:50.073Z,16.80
2023-04-09T14:05:20.942Z,18.55
2023-04-09T14:07:51.694Z,17.23
2023-04-09T14:10:23.260Z,17.52
2023-04-09T14:12:54.268Z,18.00
2023-04-09T14:15:25.016Z,17.57
2023-04-09T14:17:55.619Z,17.45
2023-04-09T14:20:26.581Z,17.17
2023-04-09T14:22:57.335Z,15.93
2023-04-09T14:25:27.960Z,15.95
2023-04-09T14:27:59.128Z,15.70
2023-04-09T14:30:30.500Z,17.12
2023-04-09T14:33:04.270Z,16.80
2023-04-09T14:35:36.461Z,16.45
2023-04-09T14:38:07.613Z,15.30
2023-04-09T14:40:40.272Z,16.60
2023-04-09T14:43:11.275Z,18.02
2023-04-09T14:45:43.509Z,17.48
2023-04-09T14:48:14.137Z,16.93
2023-04-09T14:50:45.459Z,16.70
2023-04-09T14:53:17.017Z,15.83
2023-04-09T14:55:47.466Z,17.25
2023-04-09T14:58:18.224Z,17.50
2023-04-09T15:00:48.901Z,17.27
2023-04-09T15:03:19.878Z,17.23
2023-04-09T15:05:53.298Z,17.17
2023-04-09T15:08:23.993Z,16.30
2023-04-09T15:10:56.092Z,17.27
2023-04-09T15:13:26.665Z,16.62
2023-04-09T15:15:59.878Z,17.25
2023-04-09T15:18:30.520Z,17.07
2023-04-09T15:21:02.420Z,17.07
2023-04-09T15:23:34.599Z,18.45
2023-04-09T15:26:06.735Z,17.23
2023-04-09T15:28:37.352Z,17.05
2023-04-09T15:31:08.252Z,17.05
2023-04-09T15:33:39.085Z,16.52
2023-04-09T15:36:11.023Z,16.15
2023-04-09T15:38:41.916Z,16.87
2023-04-09T15:41:12.520Z,16.25
2023-04-09T15:43:43.971Z,15.95
2023-04-09T15:46:16.407Z,20.45
2023-04-09T15:48:48.576Z,17.30
2023-04-09T15:51:19.381Z,15.85
2023-04-09T15:53:49.951Z,15.15
2023-04-09T15:56:20.746Z,15.95
2023-04-09T15:58:51.534Z,16.52
2023-04-09T16:01:22.633Z,15.08
2023-04-09T16:03:56.105Z,15.18
2023-04-09T16:06:29.604Z,14.28
2023-04-09T16:09:00.438Z,14.73
2023-04-09T16:11:31.958Z,13.65
2023-04-09T16:14:03.846Z,14.23
2023-04-09T16:16:34.709Z,13.13
2023-04-09T16:19:05.459Z,12.70
2023-04-09T16:21:36.839Z,13.05
2023-04-09T16:24:07.993Z,12.55
2023-04-09T16:26:40.848Z,12.10
2023-04-09T16:29:13.254Z,11.40
2023-04-09T16:31:45.024Z,11.80
2023-04-09T16:34:18.100Z,12.43
2023-04-09T16:36:51.556Z,12.53
2023-04-09T16:39:22.977Z,11.18
2023-04-09T16:41:54.632Z,11.68
2023-04-09T16:44:28.693Z,12.93
2023-04-09T16:47:01.116Z,13.20
2023-04-09T16:49:31.850Z,13.25
2023-04-09T16:52:09.300Z,14.87
2023-04-09T16:54:36.114Z,12.68
2023-04-09T16:57:07.335Z,12.30
2023-04-09T16:59:37.842Z,14.00
2023-04-09T17:02:08.645Z,14.00
2023-04-09T17:04:41.117Z,14.58
2023-04-09T17:07:13.245Z,15.03
2023-04-09T17:09:44.228Z,14.18
2023-04-09T17:12:15.271Z,14.95
2023-04-09T17:14:45.953Z,15.15
2023-04-09T17:17:17.269Z,15.53
2023-04-09T17:19:48.035Z,15.32
2023-04-09T17:22:18.972Z,15.32
2023-04-09T17:24:49.630Z,16.05
2023-04-09T17:27:20.650Z,15.68
2023-04-09T17:29:53.857Z,16.10
2023-04-09T17:32:25.975Z,17.27
2023-04-09T17:34:56.609Z,15.45
2023-04-09T17:37:28.947Z,15.72
2023-04-09T17:40:00.686Z,15.85
2023-04-09T17:42:31.476Z,16.12
2023-04-09T17:45:02.137Z,16.45
2023-04-09T17:47:32.920Z,16.77
2023-04-09T17:50:04.725Z,16.85
2023-04-09T17:52:39.648Z,16.87
2023-04-09T17:55:14.764Z,15.72
2023-04-09T17:57:48.164Z,17.05
2023-04-09T18:00:19.409Z,17.37
2023-04-09T18:02:54.199Z,17.67
2023-04-09T18:05:26.059Z,17.05
2023-04-09T18:07:57.289Z,17.07
2023-04-09T18:10:27.796Z,17.65
2023-04-09T18:12:59.831Z,18.30
2023-04-09T18:15:32.416Z,18.95
2023-04-09T18:18:03.034Z,19.92
2023-04-09T18:20:33.897Z,18.77
2023-04-09T18:23:04.722Z,20.10
2023-04-09T18:25:35.266Z,20.20
2023-04-09T18:28:06.167Z,26.20
2023-04-09T18:30:38.762Z,24.95
2023-04-09T18:33:09.825Z,23.77
2023-04-09T18:35:40.513Z,23.30
2023-04-09T18:38:11.257Z,23.80
2023-04-09T18:40:43.818Z,21.10
2023-04-09T18:43:20.530Z,22.15
2023-04-09T18:45:51.424Z,22.48
2023-04-09T18:48:23.459Z,24.35
2023-04-09T18:50:54.004Z,25.62
2023-04-09T18:53:26.233Z,26.80
2023-04-09T18:55:58.269Z,25.65
2023-04-09T18:58:28.825Z,27.02
2023-04-09T19:01:00.994Z,26.35
2023-04-09T19:03:32.406Z,25.95
2023-04-09T19:06:03.099Z,26.27
2023-04-09T19:08:37.133Z,24.35
2023-04-09T19:11:08.241Z,23.83
2023-04-09T19:13:39.702Z,24.50
2023-04-09T19:16:12.746Z,24.15
2023-04-09T19:18:42.469Z,26.57
2023-04-09T19:21:13.285Z,26.57
2023-04-09T19:23:45.440Z,25.50
2023-04-09T19:26:16.120Z,24.98
2023-04-09T19:28:46.860Z,29.48
2023-04-09T19:31:17.748Z,28.27
2023-04-09T19:33:48.266Z,25.88
2023-04-09T19:36:19.121Z,25.48
2023-04-09T19:38:50.699Z,28.52
2023-04-09T19:41:21.437Z,24.45
2023-04-09T19:43:52.326Z,26.62
2023-04-09T19:46:22.849Z,25.25
2023-04-09T19:48:53.645Z,26.15
2023-04-09T19:51:24.368Z,26.33
2023-04-09T19:53:54.946Z,28.20
2023-04-09T19:56:26.877Z,30.68
2023-04-09T19:58:58.443Z,25.97
2023-04-09T20:01:29.181Z,27.00
2023-04-09T20:04:01.006Z,25.37
2023-04-09T20:06:33.353Z,25.90
2023-04-09T20:09:07.842Z,26.77
2023-04-09T20:11:37.948Z,25.20
2023-04-09T20:14:10.138Z,23.60
2023-04-09T20:16:40.928Z,26.55
2023-04-09T20:19:11.573Z,24.60
2023-04-09T20:21:43.483Z,25.68
2023-04-09T20:24:14.092Z,24.27
2023-04-09T20:26:46.918Z,25.17
2023-04-09T20:29:17.583Z,24.65
2023-04-09T20:31:48.099Z,24.70
2023-04-09T20:34:18.734Z,25.15
2023-04-09T20:36:52.253Z,23.98
2023-04-09T20:39:27.736Z,24.15
2023-04-09T20:41:58.436Z,25.37
2023-04-09T20:44:29.455Z,24.55
2023-04-09T20:47:00.055Z,25.20
2023-04-09T20:49:30.974Z,24.30
2023-04-09T20:52:01.526Z,24.67
2023-04-09T20:54:33.608Z,24.77
2023-04-09T20:57:05.704Z,24.45
2023-04-09T20:59:37.217Z,25.20
2023-04-09T21:02:09.127Z,24.18
2023-04-09T21:04:42.725Z,46.98
2023-04-09T21:07:13.735Z,26.48
2023-04-09T21:09:46.134Z,24.57
2023-04-09T21:12:16.650Z,24.27
2023-04-09T21:14:48.302Z,24.98
2023-04-09T21:17:18.863Z,24.02
2023-04-09T21:19:49.366Z,22.90
2023-04-09T21:22:20.774Z,23.15
2023-04-09T21:24:56.073Z,24.63
2023-04-09T21:27:26.632Z,28.55
2023-04-09T21:29:59.898Z,24.80
2023-04-09T21:32:29.558Z,23.12
2023-04-09T21:35:01.908Z,23.50
2023-04-09T21:37:33.666Z,24.32
2023-04-09T21:40:04.549Z,24.00
2023-04-09T21:42:35.677Z,24.27
2023-04-09T21:45:08.275Z,25.57
2023-04-09T21:47:40.770Z,24.33
2023-04-09T21:50:13.658Z,25.10
2023-04-09T21:52:48.353Z,29.48
2023-04-09T21:55:18.827Z,24.45
2023-04-09T21:57:52.597Z,24.50
2023-04-09T22:00:24.772Z,24.63
2023-04-09T22:02:57.140Z,24.67
2023-04-09T22:05:28.624Z,25.52
2023-04-09T22:07:59.190Z,26.70
2023-04-09T22:10:31.447Z,26.73
2023-04-09T22:13:02.434Z,26.37
2023-04-09T22:15:33.636Z,25.75
2023-04-09T22:18:05.571Z,26.83
2023-04-09T22:20:37.156Z,27.27
2023-04-09T22:23:09.868Z,25.70
2023-04-09T22:25:40.383Z,25.88
2023-04-09T22:28:10.909Z,26.17
2023-04-09T22:30:41.532Z,26.40
2023-04-09T22:33:12.129Z,26.15
2023-04-09T22:35:43.473Z,26.93
2023-04-09T22:38:15.064Z,27.40
2023-04-09T22:40:48.402Z,22.90
2023-04-09T22:43:20.598Z,22.07
2023-04-09T22:45:56.116Z,20.97
2023-04-09T22:48:28.808Z,20.85
2023-04-09T22:51:00.468Z,21.75
2023-04-09T22:53:32.076Z,22.98
2023-04-09T22:56:05.131Z,22.50
2023-04-09T22:58:37.644Z,23.20
2023-04-09T23:01:08.818Z,24.50
2023-04-09T23:03:48.629Z,25.63
2023-04-09T23:06:19.303Z,24.93
2023-04-09T23:08:50.499Z,23.00
2023-04-09T23:11:21.786Z,23.35
2023-04-09T23:13:52.439Z,23.73
2023-04-09T23:16:24.692Z,23.27
2023-04-09T23:18:55.338Z,23.45
2023-04-09T23:21:26.702Z,25.05
2023-04-09T23:24:19.788Z,24.45
2023-04-09T23:26:49.460Z,25.80
2023-04-09T23:29:20.449Z,33.47
2023-04-09T23:31:51.446Z,24.95
2023-04-09T23:34:22.207Z,26.23
2023-04-09T23:36:52.931Z,25.48
2023-04-09T23:39:25.067Z,25.62
2023-04-09T23:41:56.194Z,24.67
2023-04-09T23:44:27.329Z,26.27
2023-04-09T23:46:59.334Z,25.87
2023-04-09T23:49:50.041Z,24.70
2023-04-09T23:52:21.817Z,26.75
2023-04-09T23:54:53.263Z,28.13
2023-04-09T23:57:25.540Z,28.30
